sensor_id;sensor_type;location;lat;lon;timestamp;P1;durP1;ratioP1;P2;durP2;ratioP2
50858;SDS011;36826;47.514;19.056;2023-05-10T00:02:24;2.42;;;1.70;;
50858;SDS011;36826;47.514;19.056;2023-05-10T00:04:50;2.25;;;1.67;;
50858;SDS011;36826;47.514;19.056;2023-05-10T00:07:15;2.72;;;1.80;;
50858;SDS011;36826;47.514;19.056;2023-05-10T00:09:42;2.03;;;1.60;;
50858;SDS011;36826;47.514;19.056;2023-05-10T00:12:08;4.20;;;1.90;;
50858;SDS011;36826;47.514;19.056;2023-05-10T00:14:34;4.15;;;1.63;;
50858;SDS011;36826;47.514;19.056;2023-05-10T00:16:59;5.28;;;2.00;;
50858;SDS011;36826;47.514;19.056;2023-05-10T00:19:25;2.72;;;1.90;;
50858;SDS011;36826;47.514;19.056;2023-05-10T00:21:50;5.07;;;1.95;;
50858;SDS011;36826;47.514;19.056;2023-05-10T00:24:16;7.50;;;2.22;;
50858;SDS011;36826;47.514;19.056;2023-05-10T00:26:41;4.80;;;2.00;;
50858;SDS011;36826;47.514;19.056;2023-05-10T00:29:07;3.03;;;2.05;;
50858;SDS011;36826;47.514;19.056;2023-05-10T00:31:32;2.70;;;2.00;;
50858;SDS011;36826;47.514;19.056;2023-05-10T00:33:58;3.97;;;2.00;;
50858;SDS011;36826;47.514;19.056;2023-05-10T00:36:24;3.92;;;1.80;;
50858;SDS011;36826;47.514;19.056;2023-05-10T00:38:49;3.05;;;1.67;;
50858;SDS011;36826;47.514;19.056;2023-05-10T00:41:15;4.25;;;1.98;;
50858;SDS011;36826;47.514;19.056;2023-05-10T00:43:40;2.80;;;1.60;;
50858;SDS011;36826;47.514;19.056;2023-05-10T00:46:06;3.25;;;2.20;;
50858;SDS011;36826;47.514;19.056;2023-05-10T00:48:32;3.72;;;2.13;;
50858;SDS011;36826;47.514;19.056;2023-05-10T00:50:58;4.10;;;2.00;;
50858;SDS011;36826;47.514;19.056;2023-05-10T00:53:24;3.40;;;2.00;;
50858;SDS011;36826;47.514;19.056;2023-05-10T00:55:49;2.88;;;2.00;;
50858;SDS011;36826;47.514;19.056;2023-05-10T00:58:16;3.50;;;1.90;;
50858;SDS011;36826;47.514;19.056;2023-05-10T01:00:42;3.28;;;2.15;;
50858;SDS011;36826;47.514;19.056;2023-05-10T01:03:11;3.17;;;2.20;;
50858;SDS011;36826;47.514;19.056;2023-05-10T01:05:37;4.97;;;2.03;;
50858;SDS011;36826;47.514;19.056;2023-05-10T01:08:02;3.13;;;2.08;;
50858;SDS011;36826;47.514;19.056;2023-05-10T01:10:28;2.80;;;2.05;;
50858;SDS011;36826;47.514;19.056;2023-05-10T01:12:54;3.60;;;2.20;;
50858;SDS011;36826;47.514;19.056;2023-05-10T01:15:20;4.50;;;2.10;;
50858;SDS011;36826;47.514;19.056;2023-05-10T01:17:46;4.13;;;2.00;;
50858;SDS011;36826;47.514;19.056;2023-05-10T01:20:13;2.85;;;2.13;;
50858;SDS011;36826;47.514;19.056;2023-05-10T01:25:31;4.80;;;2.72;;
50858;SDS011;36826;47.514;19.056;2023-05-10T01:34:27;3.08;;;2.50;;
50858;SDS011;36826;47.514;19.056;2023-05-10T01:37:10;2.78;;;2.05;;
50858;SDS011;36826;47.514;19.056;2023-05-10T01:40:32;3.50;;;2.40;;
50858;SDS011;36826;47.514;19.056;2023-05-10T01:45:18;6.25;;;2.40;;
50858;SDS011;36826;47.514;19.056;2023-05-10T01:47:53;5.43;;;2.50;;
50858;SDS011;36826;47.514;19.056;2023-05-10T01:50:24;3.65;;;2.40;;
50858;SDS011;36826;47.514;19.056;2023-05-10T01:52:54;4.30;;;2.35;;
50858;SDS011;36826;47.514;19.056;2023-05-10T01:55:23;5.10;;;2.42;;
50858;SDS011;36826;47.514;19.056;2023-05-10T01:57:55;4.35;;;2.50;;
50858;SDS011;36826;47.514;19.056;2023-05-10T02:00:29;3.20;;;2.45;;
50858;SDS011;36826;47.514;19.056;2023-05-10T02:02:56;4.55;;;2.47;;
50858;SDS011;36826;47.514;19.056;2023-05-10T02:05:22;4.25;;;2.10;;
50858;SDS011;36826;47.514;19.056;2023-05-10T02:07:50;3.75;;;2.47;;
50858;SDS011;36826;47.514;19.056;2023-05-10T02:10:17;6.70;;;2.60;;
50858;SDS011;36826;47.514;19.056;2023-05-10T02:12:44;3.53;;;2.22;;
50858;SDS011;36826;47.514;19.056;2023-05-10T02:15:12;3.33;;;2.40;;
50858;SDS011;36826;47.514;19.056;2023-05-10T02:17:43;5.40;;;2.53;;
50858;SDS011;36826;47.514;19.056;2023-05-10T02:20:09;4.13;;;2.42;;
50858;SDS011;36826;47.514;19.056;2023-05-10T02:22:36;6.10;;;2.70;;
50858;SDS011;36826;47.514;19.056;2023-05-10T02:25:04;3.13;;;2.10;;
50858;SDS011;36826;47.514;19.056;2023-05-10T02:27:31;5.95;;;2.50;;
50858;SDS011;36826;47.514;19.056;2023-05-10T02:29:58;4.47;;;2.30;;
50858;SDS011;36826;47.514;19.056;2023-05-10T02:32:24;2.50;;;2.15;;
50858;SDS011;36826;47.514;19.056;2023-05-10T02:34:51;4.72;;;2.47;;
50858;SDS011;36826;47.514;19.056;2023-05-10T02:37:21;4.70;;;2.35;;
50858;SDS011;36826;47.514;19.056;2023-05-10T02:39:50;3.13;;;2.05;;
50858;SDS011;36826;47.514;19.056;2023-05-10T02:42:17;3.42;;;2.20;;
50858;SDS011;36826;47.514;19.056;2023-05-10T02:44:48;2.92;;;2.20;;
50858;SDS011;36826;47.514;19.056;2023-05-10T02:47:15;4.30;;;2.35;;
50858;SDS011;36826;47.514;19.056;2023-05-10T02:49:42;3.95;;;2.63;;
50858;SDS011;36826;47.514;19.056;2023-05-10T02:52:08;4.00;;;2.00;;
50858;SDS011;36826;47.514;19.056;2023-05-10T02:54:39;3.60;;;2.20;;
50858;SDS011;36826;47.514;19.056;2023-05-10T02:57:10;2.85;;;2.30;;
50858;SDS011;36826;47.514;19.056;2023-05-10T02:59:40;3.55;;;2.58;;
50858;SDS011;36826;47.514;19.056;2023-05-10T03:02:08;3.60;;;2.38;;
50858;SDS011;36826;47.514;19.056;2023-05-10T03:04:35;5.30;;;2.28;;
50858;SDS011;36826;47.514;19.056;2023-05-10T03:07:01;3.80;;;2.40;;
50858;SDS011;36826;47.514;19.056;2023-05-10T03:09:27;2.85;;;2.25;;
50858;SDS011;36826;47.514;19.056;2023-05-10T03:19:53;3.58;;;2.30;;
50858;SDS011;36826;47.514;19.056;2023-05-10T03:22:22;5.25;;;2.83;;
50858;SDS011;36826;47.514;19.056;2023-05-10T03:24:56;4.45;;;2.58;;
50858;SDS011;36826;47.514;19.056;2023-05-10T03:27:26;4.32;;;2.60;;
50858;SDS011;36826;47.514;19.056;2023-05-10T03:29:53;5.70;;;3.00;;
50858;SDS011;36826;47.514;19.056;2023-05-10T03:32:21;5.85;;;2.60;;
50858;SDS011;36826;47.514;19.056;2023-05-10T03:34:47;3.08;;;2.42;;
50858;SDS011;36826;47.514;19.056;2023-05-10T03:37:12;4.07;;;2.72;;
50858;SDS011;36826;47.514;19.056;2023-05-10T03:39:38;5.00;;;2.50;;
50858;SDS011;36826;47.514;19.056;2023-05-10T03:42:03;4.07;;;2.63;;
50858;SDS011;36826;47.514;19.056;2023-05-10T03:44:29;5.45;;;3.05;;
50858;SDS011;36826;47.514;19.056;2023-05-10T03:46:54;5.25;;;2.80;;
50858;SDS011;36826;47.514;19.056;2023-05-10T03:49:21;5.45;;;2.83;;
50858;SDS011;36826;47.514;19.056;2023-05-10T03:51:47;5.22;;;2.58;;
50858;SDS011;36826;47.514;19.056;2023-05-10T03:54:13;3.40;;;2.63;;
50858;SDS011;36826;47.514;19.056;2023-05-10T03:56:38;6.07;;;2.53;;
50858;SDS011;36826;47.514;19.056;2023-05-10T03:59:04;3.60;;;2.75;;
50858;SDS011;36826;47.514;19.056;2023-05-10T04:01:32;3.17;;;2.40;;
50858;SDS011;36826;47.514;19.056;2023-05-10T04:03:58;3.75;;;2.83;;
50858;SDS011;36826;47.514;19.056;2023-05-10T04:06:24;5.30;;;3.03;;
50858;SDS011;36826;47.514;19.056;2023-05-10T04:08:50;7.32;;;2.63;;
50858;SDS011;36826;47.514;19.056;2023-05-10T04:11:15;4.80;;;3.03;;
50858;SDS011;36826;47.514;19.056;2023-05-10T04:13:41;5.55;;;3.10;;
50858;SDS011;36826;47.514;19.056;2023-05-10T04:16:07;3.72;;;2.90;;
50858;SDS011;36826;47.514;19.056;2023-05-10T04:18:33;5.72;;;2.88;;
50858;SDS011;36826;47.514;19.056;2023-05-10T04:20:59;3.95;;;2.75;;
50858;SDS011;36826;47.514;19.056;2023-05-10T04:23:24;4.57;;;2.78;;
50858;SDS011;36826;47.514;19.056;2023-05-10T04:25:50;6.35;;;2.70;;
50858;SDS011;36826;47.514;19.056;2023-05-10T04:28:16;4.18;;;2.75;;
50858;SDS011;36826;47.514;19.056;2023-05-10T04:30:42;6.30;;;3.00;;
50858;SDS011;36826;47.514;19.056;2023-05-10T04:33:07;4.05;;;2.70;;
50858;SDS011;36826;47.514;19.056;2023-05-10T04:35:33;5.20;;;3.05;;
50858;SDS011;36826;47.514;19.056;2023-05-10T04:38:00;3.22;;;2.92;;
50858;SDS011;36826;47.514;19.056;2023-05-10T04:40:26;4.45;;;3.40;;
50858;SDS011;36826;47.514;19.056;2023-05-10T04:42:52;5.50;;;2.95;;
50858;SDS011;36826;47.514;19.056;2023-05-10T04:45:17;6.32;;;3.17;;
50858;SDS011;36826;47.514;19.056;2023-05-10T04:47:43;4.13;;;2.75;;
50858;SDS011;36826;47.514;19.056;2023-05-10T04:50:08;4.55;;;2.60;;
50858;SDS011;36826;47.514;19.056;2023-05-10T04:52:33;3.80;;;2.35;;
50858;SDS011;36826;47.514;19.056;2023-05-10T04:54:59;5.18;;;2.47;;
50858;SDS011;36826;47.514;19.056;2023-05-10T04:57:24;3.78;;;2.45;;
50858;SDS011;36826;47.514;19.056;2023-05-10T04:59:50;3.53;;;2.10;;
50858;SDS011;36826;47.514;19.056;2023-05-10T05:02:16;2.88;;;2.20;;
50858;SDS011;36826;47.514;19.056;2023-05-10T05:04:41;3.42;;;2.33;;
50858;SDS011;36826;47.514;19.056;2023-05-10T05:07:07;3.78;;;2.33;;
50858;SDS011;36826;47.514;19.056;2023-05-10T05:09:32;3.42;;;2.58;;
50858;SDS011;36826;47.514;19.056;2023-05-10T05:11:58;3.97;;;2.60;;
50858;SDS011;36826;47.514;19.056;2023-05-10T05:14:24;4.60;;;2.50;;
50858;SDS011;36826;47.514;19.056;2023-05-10T05:16:52;2.50;;;1.90;;
50858;SDS011;36826;47.514;19.056;2023-05-10T05:19:17;4.03;;;2.08;;
50858;SDS011;36826;47.514;19.056;2023-05-10T05:21:43;3.38;;;2.00;;
50858;SDS011;36826;47.514;19.056;2023-05-10T05:24:08;4.28;;;2.38;;
50858;SDS011;36826;47.514;19.056;2023-05-10T05:26:35;3.78;;;2.28;;
50858;SDS011;36826;47.514;19.056;2023-05-10T05:29:01;2.72;;;2.30;;
50858;SDS011;36826;47.514;19.056;2023-05-10T05:31:27;3.90;;;2.28;;
50858;SDS011;36826;47.514;19.056;2023-05-10T05:33:53;4.00;;;2.65;;
50858;SDS011;36826;47.514;19.056;2023-05-10T05:36:18;5.65;;;2.67;;
50858;SDS011;36826;47.514;19.056;2023-05-10T05:38:44;4.40;;;2.40;;
50858;SDS011;36826;47.514;19.056;2023-05-10T05:41:10;4.40;;;2.80;;
50858;SDS011;36826;47.514;19.056;2023-05-10T05:43:36;3.45;;;2.30;;
50858;SDS011;36826;47.514;19.056;2023-05-10T05:46:01;6.20;;;2.80;;
50858;SDS011;36826;47.514;19.056;2023-05-10T05:48:29;5.45;;;2.88;;
50858;SDS011;36826;47.514;19.056;2023-05-10T05:50:55;3.00;;;2.70;;
50858;SDS011;36826;47.514;19.056;2023-05-10T05:53:21;4.70;;;2.50;;
50858;SDS011;36826;47.514;19.056;2023-05-10T05:55:54;3.95;;;2.40;;
50858;SDS011;36826;47.514;19.056;2023-05-10T05:58:22;4.78;;;2.28;;
50858;SDS011;36826;47.514;19.056;2023-05-10T06:00:48;6.50;;;2.50;;
50858;SDS011;36826;47.514;19.056;2023-05-10T06:03:14;6.95;;;2.58;;
50858;SDS011;36826;47.514;19.056;2023-05-10T06:05:40;3.50;;;2.40;;
50858;SDS011;36826;47.514;19.056;2023-05-10T06:08:05;2.67;;;2.17;;
50858;SDS011;36826;47.514;19.056;2023-05-10T06:10:31;3.15;;;2.17;;
50858;SDS011;36826;47.514;19.056;2023-05-10T06:12:58;2.35;;;1.90;;
50858;SDS011;36826;47.514;19.056;2023-05-10T06:15:25;7.37;;;2.20;;
50858;SDS011;36826;47.514;19.056;2023-05-10T06:17:51;5.50;;;2.50;;
50858;SDS011;36826;47.514;19.056;2023-05-10T06:20:16;2.92;;;2.42;;
50858;SDS011;36826;47.514;19.056;2023-05-10T06:22:42;4.72;;;2.50;;
50858;SDS011;36826;47.514;19.056;2023-05-10T06:25:08;2.72;;;2.10;;
50858;SDS011;36826;47.514;19.056;2023-05-10T06:27:34;3.53;;;2.28;;
50858;SDS011;36826;47.514;19.056;2023-05-10T06:30:01;3.88;;;2.50;;
50858;SDS011;36826;47.514;19.056;2023-05-10T06:32:27;5.72;;;2.28;;
50858;SDS011;36826;47.514;19.056;2023-05-10T06:34:53;3.67;;;2.55;;
50858;SDS011;36826;47.514;19.056;2023-05-10T06:37:19;3.90;;;2.47;;
50858;SDS011;36826;47.514;19.056;2023-05-10T06:39:44;4.40;;;2.70;;
50858;SDS011;36826;47.514;19.056;2023-05-10T06:42:10;4.55;;;2.45;;
50858;SDS011;36826;47.514;19.056;2023-05-10T06:44:35;3.30;;;2.40;;
50858;SDS011;36826;47.514;19.056;2023-05-10T06:47:01;6.60;;;2.47;;
50858;SDS011;36826;47.514;19.056;2023-05-10T06:49:26;4.28;;;2.10;;
50858;SDS011;36826;47.514;19.056;2023-05-10T06:51:52;4.70;;;2.45;;
50858;SDS011;36826;47.514;19.056;2023-05-10T06:54:17;3.13;;;2.40;;
50858;SDS011;36826;47.514;19.056;2023-05-10T06:56:43;4.88;;;2.15;;
50858;SDS011;36826;47.514;19.056;2023-05-10T06:59:08;3.60;;;2.30;;
50858;SDS011;36826;47.514;19.056;2023-05-10T07:01:34;3.75;;;2.03;;
50858;SDS011;36826;47.514;19.056;2023-05-10T07:04:00;3.05;;;2.10;;
50858;SDS011;36826;47.514;19.056;2023-05-10T07:06:25;3.22;;;2.30;;
50858;SDS011;36826;47.514;19.056;2023-05-10T07:08:51;2.55;;;2.17;;
50858;SDS011;36826;47.514;19.056;2023-05-10T07:11:16;2.97;;;2.47;;
50858;SDS011;36826;47.514;19.056;2023-05-10T07:13:42;3.17;;;2.47;;
50858;SDS011;36826;47.514;19.056;2023-05-10T07:16:09;5.47;;;2.50;;
50858;SDS011;36826;47.514;19.056;2023-05-10T07:18:36;2.77;;;1.90;;
50858;SDS011;36826;47.514;19.056;2023-05-10T07:21:01;4.43;;;1.80;;
50858;SDS011;36826;47.514;19.056;2023-05-10T07:23:28;5.53;;;2.05;;
50858;SDS011;36826;47.514;19.056;2023-05-10T07:25:53;3.60;;;2.28;;
50858;SDS011;36826;47.514;19.056;2023-05-10T07:28:19;3.47;;;2.20;;
50858;SDS011;36826;47.514;19.056;2023-05-10T07:30:45;3.30;;;2.13;;
50858;SDS011;36826;47.514;19.056;2023-05-10T07:33:11;3.10;;;1.90;;
50858;SDS011;36826;47.514;19.056;2023-05-10T07:35:39;2.70;;;2.35;;
50858;SDS011;36826;47.514;19.056;2023-05-10T07:38:04;4.30;;;2.35;;
50858;SDS011;36826;47.514;19.056;2023-05-10T07:40:30;3.63;;;2.28;;
50858;SDS011;36826;47.514;19.056;2023-05-10T07:42:57;3.63;;;2.15;;
50858;SDS011;36826;47.514;19.056;2023-05-10T07:45:24;3.67;;;2.03;;
50858;SDS011;36826;47.514;19.056;2023-05-10T07:47:50;4.82;;;2.00;;
50858;SDS011;36826;47.514;19.056;2023-05-10T07:50:15;3.72;;;2.10;;
50858;SDS011;36826;47.514;19.056;2023-05-10T07:52:41;3.15;;;1.90;;
50858;SDS011;36826;47.514;19.056;2023-05-10T07:55:07;2.55;;;2.13;;
50858;SDS011;36826;47.514;19.056;2023-05-10T07:57:33;3.33;;;1.92;;
50858;SDS011;36826;47.514;19.056;2023-05-10T08:00:01;2.30;;;1.83;;
50858;SDS011;36826;47.514;19.056;2023-05-10T08:02:27;2.30;;;1.65;;
50858;SDS011;36826;47.514;19.056;2023-05-10T08:04:53;2.45;;;2.00;;
50858;SDS011;36826;47.514;19.056;2023-05-10T08:07:18;3.38;;;2.00;;
50858;SDS011;36826;47.514;19.056;2023-05-10T08:09:44;3.15;;;1.92;;
50858;SDS011;36826;47.514;19.056;2023-05-10T08:12:10;3.60;;;2.13;;
50858;SDS011;36826;47.514;19.056;2023-05-10T08:14:36;2.40;;;2.08;;
50858;SDS011;36826;47.514;19.056;2023-05-10T08:17:02;4.32;;;1.60;;
50858;SDS011;36826;47.514;19.056;2023-05-10T08:19:28;2.63;;;1.70;;
50858;SDS011;36826;47.514;19.056;2023-05-10T08:21:54;4.00;;;2.03;;
50858;SDS011;36826;47.514;19.056;2023-05-10T08:24:20;7.60;;;1.90;;
50858;SDS011;36826;47.514;19.056;2023-05-10T08:26:46;4.07;;;1.95;;
50858;SDS011;36826;47.514;19.056;2023-05-10T08:29:12;6.45;;;1.98;;
50858;SDS011;36826;47.514;19.056;2023-05-10T08:31:38;2.38;;;1.67;;
50858;SDS011;36826;47.514;19.056;2023-05-10T08:34:04;4.45;;;1.67;;
50858;SDS011;36826;47.514;19.056;2023-05-10T08:36:29;3.10;;;1.88;;
50858;SDS011;36826;47.514;19.056;2023-05-10T08:38:55;3.13;;;1.73;;
50858;SDS011;36826;47.514;19.056;2023-05-10T08:41:21;2.13;;;1.75;;
50858;SDS011;36826;47.514;19.056;2023-05-10T08:43:49;3.22;;;2.03;;
50858;SDS011;36826;47.514;19.056;2023-05-10T08:46:16;2.03;;;1.83;;
50858;SDS011;36826;47.514;19.056;2023-05-10T08:48:47;3.42;;;1.83;;
50858;SDS011;36826;47.514;19.056;2023-05-10T08:51:18;3.63;;;1.92;;
50858;SDS011;36826;47.514;19.056;2023-05-10T08:53:47;3.80;;;2.00;;
50858;SDS011;36826;47.514;19.056;2023-05-10T08:56:13;3.28;;;2.05;;
50858;SDS011;36826;47.514;19.056;2023-05-10T08:58:40;2.20;;;1.88;;
50858;SDS011;36826;47.514;19.056;2023-05-10T09:01:06;2.28;;;2.08;;
50858;SDS011;36826;47.514;19.056;2023-05-10T09:03:33;3.75;;;1.65;;
50858;SDS011;36826;47.514;19.056;2023-05-10T09:05:59;2.13;;;1.70;;
50858;SDS011;36826;47.514;19.056;2023-05-10T09:08:24;3.58;;;1.92;;
50858;SDS011;36826;47.514;19.056;2023-05-10T09:10:51;3.22;;;1.77;;
50858;SDS011;36826;47.514;19.056;2023-05-10T09:13:19;2.55;;;1.52;;
50858;SDS011;36826;47.514;19.056;2023-05-10T09:15:46;2.83;;;2.17;;
50858;SDS011;36826;47.514;19.056;2023-05-10T09:18:13;2.97;;;1.60;;
50858;SDS011;36826;47.514;19.056;2023-05-10T09:20:40;4.20;;;1.77;;
50858;SDS011;36826;47.514;19.056;2023-05-10T09:23:06;3.10;;;1.92;;
50858;SDS011;36826;47.514;19.056;2023-05-10T09:25:32;2.58;;;1.70;;
50858;SDS011;36826;47.514;19.056;2023-05-10T09:28:03;2.40;;;1.63;;
50858;SDS011;36826;47.514;19.056;2023-05-10T09:30:31;2.90;;;1.80;;
50858;SDS011;36826;47.514;19.056;2023-05-10T09:32:58;3.03;;;1.33;;
50858;SDS011;36826;47.514;19.056;2023-05-10T09:35:26;3.75;;;1.45;;
50858;SDS011;36826;47.514;19.056;2023-05-10T09:37:54;3.83;;;1.70;;
50858;SDS011;36826;47.514;19.056;2023-05-10T09:40:23;3.22;;;1.67;;
50858;SDS011;36826;47.514;19.056;2023-05-10T09:42:56;3.45;;;1.88;;
50858;SDS011;36826;47.514;19.056;2023-05-10T09:45:23;2.47;;;1.67;;
50858;SDS011;36826;47.514;19.056;2023-05-10T09:47:50;2.67;;;1.60;;
50858;SDS011;36826;47.514;19.056;2023-05-10T09:50:16;2.30;;;1.98;;
50858;SDS011;36826;47.514;19.056;2023-05-10T09:52:46;3.33;;;1.95;;
50858;SDS011;36826;47.514;19.056;2023-05-10T09:55:38;2.20;;;2.00;;
50858;SDS011;36826;47.514;19.056;2023-05-10T09:58:06;2.00;;;1.75;;
50858;SDS011;36826;47.514;19.056;2023-05-10T10:00:36;2.13;;;1.48;;
50858;SDS011;36826;47.514;19.056;2023-05-10T10:03:03;3.70;;;1.80;;
50858;SDS011;36826;47.514;19.056;2023-05-10T10:05:32;3.85;;;1.88;;
50858;SDS011;36826;47.514;19.056;2023-05-10T10:08:00;2.13;;;1.50;;
50858;SDS011;36826;47.514;19.056;2023-05-10T10:10:28;2.95;;;1.63;;
50858;SDS011;36826;47.514;19.056;2023-05-10T10:12:58;2.67;;;1.80;;
50858;SDS011;36826;47.514;19.056;2023-05-10T10:15:24;3.00;;;1.55;;
50858;SDS011;36826;47.514;19.056;2023-05-10T10:17:51;2.78;;;1.50;;
50858;SDS011;36826;47.514;19.056;2023-05-10T10:20:19;2.88;;;1.65;;
50858;SDS011;36826;47.514;19.056;2023-05-10T10:22:46;2.42;;;1.75;;
50858;SDS011;36826;47.514;19.056;2023-05-10T10:25:14;3.45;;;2.55;;
50858;SDS011;36826;47.514;19.056;2023-05-10T10:30:24;3.33;;;1.33;;
50858;SDS011;36826;47.514;19.056;2023-05-10T10:35:50;4.63;;;1.70;;
50858;SDS011;36826;47.514;19.056;2023-05-10T10:38:21;4.35;;;1.40;;
50858;SDS011;36826;47.514;19.056;2023-05-10T10:40:47;1.70;;;1.30;;
50858;SDS011;36826;47.514;19.056;2023-05-10T10:43:21;2.67;;;1.40;;
50858;SDS011;36826;47.514;19.056;2023-05-10T10:48:50;2.90;;;1.42;;
50858;SDS011;36826;47.514;19.056;2023-05-10T10:51:36;4.05;;;1.08;;
50858;SDS011;36826;47.514;19.056;2023-05-10T10:54:12;3.15;;;1.50;;
50858;SDS011;36826;47.514;19.056;2023-05-10T10:56:37;2.85;;;1.38;;
50858;SDS011;36826;47.514;19.056;2023-05-10T11:01:37;3.60;;;1.15;;
50858;SDS011;36826;47.514;19.056;2023-05-10T11:09:06;3.83;;;1.60;;
50858;SDS011;36826;47.514;19.056;2023-05-10T11:11:34;2.50;;;1.40;;
50858;SDS011;36826;47.514;19.056;2023-05-10T11:14:04;3.17;;;1.60;;
50858;SDS011;36826;47.514;19.056;2023-05-10T11:16:41;2.35;;;1.70;;
50858;SDS011;36826;47.514;19.056;2023-05-10T11:19:08;1.95;;;1.30;;
50858;SDS011;36826;47.514;19.056;2023-05-10T11:22:11;2.65;;;1.40;;
50858;SDS011;36826;47.514;19.056;2023-05-10T11:24:38;2.40;;;1.27;;
50858;SDS011;36826;47.514;19.056;2023-05-10T11:27:05;3.55;;;1.02;;
50858;SDS011;36826;47.514;19.056;2023-05-10T11:29:32;2.28;;;1.25;;
50858;SDS011;36826;47.514;19.056;2023-05-10T11:31:58;1.70;;;1.02;;
50858;SDS011;36826;47.514;19.056;2023-05-10T11:34:28;1.85;;;0.95;;
50858;SDS011;36826;47.514;19.056;2023-05-10T11:36:55;2.38;;;1.30;;
50858;SDS011;36826;47.514;19.056;2023-05-10T11:39:30;3.10;;;1.02;;
50858;SDS011;36826;47.514;19.056;2023-05-10T11:41:57;4.53;;;1.10;;
50858;SDS011;36826;47.514;19.056;2023-05-10T11:44:23;2.33;;;0.68;;
50858;SDS011;36826;47.514;19.056;2023-05-10T11:46:58;4.13;;;0.95;;
50858;SDS011;36826;47.514;19.056;2023-05-10T11:49:25;1.20;;;0.50;;
50858;SDS011;36826;47.514;19.056;2023-05-10T11:51:52;3.15;;;0.98;;
50858;SDS011;36826;47.514;19.056;2023-05-10T11:54:18;2.15;;;0.93;;
50858;SDS011;36826;47.514;19.056;2023-05-10T11:56:46;2.88;;;1.02;;
50858;SDS011;36826;47.514;19.056;2023-05-10T11:59:13;2.13;;;0.73;;
50858;SDS011;36826;47.514;19.056;2023-05-10T12:01:40;1.90;;;0.90;;
50858;SDS011;36826;47.514;19.056;2023-05-10T12:04:10;1.55;;;0.90;;
50858;SDS011;36826;47.514;19.056;2023-05-10T12:06:39;2.05;;;1.00;;
50858;SDS011;36826;47.514;19.056;2023-05-10T12:09:06;3.05;;;1.13;;
50858;SDS011;36826;47.514;19.056;2023-05-10T12:11:35;2.40;;;0.85;;
50858;SDS011;36826;47.514;19.056;2023-05-10T12:14:05;3.63;;;0.80;;
50858;SDS011;36826;47.514;19.056;2023-05-10T12:16:32;1.95;;;0.90;;
50858;SDS011;36826;47.514;19.056;2023-05-10T12:18:59;1.60;;;0.80;;
50858;SDS011;36826;47.514;19.056;2023-05-10T12:21:27;4.00;;;0.75;;
50858;SDS011;36826;47.514;19.056;2023-05-10T12:23:59;2.80;;;0.80;;
50858;SDS011;36826;47.514;19.056;2023-05-10T12:26:28;3.85;;;1.15;;
50858;SDS011;36826;47.514;19.056;2023-05-10T12:29:13;2.75;;;1.08;;
50858;SDS011;36826;47.514;19.056;2023-05-10T12:31:58;3.25;;;1.05;;
50858;SDS011;36826;47.514;19.056;2023-05-10T12:37:09;2.30;;;0.70;;
50858;SDS011;36826;47.514;19.056;2023-05-10T12:39:55;2.88;;;0.70;;
50858;SDS011;36826;47.514;19.056;2023-05-10T12:42:27;2.25;;;0.80;;
50858;SDS011;36826;47.514;19.056;2023-05-10T12:44:56;2.38;;;0.85;;
50858;SDS011;36826;47.514;19.056;2023-05-10T12:47:23;2.05;;;0.60;;
50858;SDS011;36826;47.514;19.056;2023-05-10T12:49:50;1.67;;;0.70;;
50858;SDS011;36826;47.514;19.056;2023-05-10T12:52:16;2.63;;;1.05;;
50858;SDS011;36826;47.514;19.056;2023-05-10T12:54:42;2.38;;;0.70;;
50858;SDS011;36826;47.514;19.056;2023-05-10T12:57:10;1.50;;;0.68;;
50858;SDS011;36826;47.514;19.056;2023-05-10T12:59:38;3.50;;;0.77;;
50858;SDS011;36826;47.514;19.056;2023-05-10T13:02:05;3.58;;;1.08;;
50858;SDS011;36826;47.514;19.056;2023-05-10T13:04:32;3.05;;;1.08;;
50858;SDS011;36826;47.514;19.056;2023-05-10T13:07:06;2.25;;;0.70;;
50858;SDS011;36826;47.514;19.056;2023-05-10T13:09:32;1.45;;;0.63;;
50858;SDS011;36826;47.514;19.056;2023-05-10T13:11:58;2.40;;;0.70;;
50858;SDS011;36826;47.514;19.056;2023-05-10T13:14:25;4.05;;;0.80;;
50858;SDS011;36826;47.514;19.056;2023-05-10T13:16:51;1.42;;;0.52;;
50858;SDS011;36826;47.514;19.056;2023-05-10T13:19:17;1.90;;;0.70;;
50858;SDS011;36826;47.514;19.056;2023-05-10T13:21:43;5.05;;;0.80;;
50858;SDS011;36826;47.514;19.056;2023-05-10T13:24:31;4.32;;;0.55;;
50858;SDS011;36826;47.514;19.056;2023-05-10T13:26:57;5.68;;;0.68;;
50858;SDS011;36826;47.514;19.056;2023-05-10T13:29:23;2.35;;;0.50;;
50858;SDS011;36826;47.514;19.056;2023-05-10T13:31:49;2.33;;;0.68;;
50858;SDS011;36826;47.514;19.056;2023-05-10T13:34:15;2.42;;;0.47;;
50858;SDS011;36826;47.514;19.056;2023-05-10T13:36:41;2.03;;;0.50;;
50858;SDS011;36826;47.514;19.056;2023-05-10T13:39:08;1.52;;;0.55;;
50858;SDS011;36826;47.514;19.056;2023-05-10T13:41:34;2.53;;;0.32;;
50858;SDS011;36826;47.514;19.056;2023-05-10T13:44:02;2.55;;;0.80;;
50858;SDS011;36826;47.514;19.056;2023-05-10T13:46:28;2.35;;;0.57;;
50858;SDS011;36826;47.514;19.056;2023-05-10T13:48:55;1.35;;;0.70;;
50858;SDS011;36826;47.514;19.056;2023-05-10T13:51:22;2.85;;;0.88;;
50858;SDS011;36826;47.514;19.056;2023-05-10T13:53:47;2.58;;;0.70;;
50858;SDS011;36826;47.514;19.056;2023-05-10T13:56:13;2.35;;;0.50;;
50858;SDS011;36826;47.514;19.056;2023-05-10T13:58:39;1.88;;;0.50;;
50858;SDS011;36826;47.514;19.056;2023-05-10T14:01:06;1.38;;;0.40;;
50858;SDS011;36826;47.514;19.056;2023-05-10T14:03:32;1.95;;;0.50;;
50858;SDS011;36826;47.514;19.056;2023-05-10T14:05:59;2.35;;;0.50;;
50858;SDS011;36826;47.514;19.056;2023-05-10T14:10:52;1.42;;;0.40;;
50858;SDS011;36826;47.514;19.056;2023-05-10T14:13:18;2.15;;;0.38;;
50858;SDS011;36826;47.514;19.056;2023-05-10T14:15:43;2.35;;;0.47;;
50858;SDS011;36826;47.514;19.056;2023-05-10T14:18:09;4.32;;;0.50;;
50858;SDS011;36826;47.514;19.056;2023-05-10T14:20:37;3.58;;;0.50;;
50858;SDS011;36826;47.514;19.056;2023-05-10T14:23:04;1.02;;;0.43;;
50858;SDS011;36826;47.514;19.056;2023-05-10T14:25:30;3.00;;;0.35;;
50858;SDS011;36826;47.514;19.056;2023-05-10T14:27:55;1.10;;;0.30;;
50858;SDS011;36826;47.514;19.056;2023-05-10T14:30:21;1.17;;;0.30;;
50858;SDS011;36826;47.514;19.056;2023-05-10T14:32:46;1.52;;;0.40;;
50858;SDS011;36826;47.514;19.056;2023-05-10T14:35:16;2.38;;;0.40;;
50858;SDS011;36826;47.514;19.056;2023-05-10T14:37:41;3.15;;;0.50;;
50858;SDS011;36826;47.514;19.056;2023-05-10T14:40:08;1.08;;;0.30;;
50858;SDS011;36826;47.514;19.056;2023-05-10T14:42:34;1.83;;;0.43;;
50858;SDS011;36826;47.514;19.056;2023-05-10T14:45:00;1.30;;;0.17;;
50858;SDS011;36826;47.514;19.056;2023-05-10T14:47:25;2.10;;;0.35;;
50858;SDS011;36826;47.514;19.056;2023-05-10T14:49:52;2.78;;;0.45;;
50858;SDS011;36826;47.514;19.056;2023-05-10T14:52:18;1.77;;;0.50;;
50858;SDS011;36826;47.514;19.056;2023-05-10T14:54:46;1.08;;;0.38;;
50858;SDS011;36826;47.514;19.056;2023-05-10T14:57:11;1.50;;;0.50;;
50858;SDS011;36826;47.514;19.056;2023-05-10T14:59:39;4.38;;;0.50;;
50858;SDS011;36826;47.514;19.056;2023-05-10T15:02:05;1.50;;;0.50;;
50858;SDS011;36826;47.514;19.056;2023-05-10T15:07:02;2.05;;;0.38;;
50858;SDS011;36826;47.514;19.056;2023-05-10T15:09:28;1.95;;;0.40;;
50858;SDS011;36826;47.514;19.056;2023-05-10T15:11:54;3.63;;;0.40;;
50858;SDS011;36826;47.514;19.056;2023-05-10T15:14:21;1.30;;;0.52;;
50858;SDS011;36826;47.514;19.056;2023-05-10T15:16:47;1.20;;;0.32;;
50858;SDS011;36826;47.514;19.056;2023-05-10T15:19:13;2.60;;;0.40;;